Time;durP1;ratioP1;P1;durP2;ratioP2;P2;SDS_P1;SDS_P2;PMS_P1;PMS_P2;Temp;Humidity;BMP_temperature;BMP_pressure;BME280_temperature;BME280_humidity;BME280_pressure;Samples;Min_cycle;Max_cycle;Signal;HPM_P1;HPM_P2
2023/02/20 00:00:33;;;;;;;3.73;3.40;;;;;;;;;;4992308;28;20197;-44
2023/02/20 00:02:59;;;;;;;3.65;3.35;;;;;;;;;;4991915;28;20830;-44
2023/02/20 00:05:25;;;;;;;4.33;3.93;;;;;;;;;;4991396;28;20267;-43
2023/02/20 00:07:51;;;;;;;5.18;3.90;;;;;;;;;;4991911;28;20404;-44
2023/02/20 00:10:18;;;;;;;5.33;4.83;;;;;;;;;;4991967;28;20193;-44
2023/02/20 00:12:44;;;;;;;6.35;3.83;;;;;;;;;;4991990;28;20801;-43
2023/02/20 00:15:13;;;;;;;7.77;4.90;;;;;;;;;;4991288;28;20200;-44
2023/02/20 00:17:39;;;;;;;7.03;5.13;;;;;;;;;;4991975;28;20524;-44
2023/02/20 00:20:05;;;;;;;12.13;5.37;;;;;;;;;;4991678;28;20228;-44
2023/02/20 00:22:31;;;;;;;6.25;5.15;;;;;;;;;;4991820;28;20408;-44
2023/02/20 00:25:00;;;;;;;6.03;4.72;;;;;;;;;;4990880;28;20187;-44
2023/02/20 00:27:26;;;;;;;7.65;5.70;;;;;;;;;;4991859;28;20172;-44
2023/02/20 00:29:52;;;;;;;11.63;6.10;;;;;;;;;;4991714;28;20204;-44
2023/02/20 00:32:18;;;;;;;10.97;6.53;;;;;;;;;;4991720;28;20521;-43
2023/02/20 00:34:44;;;;;;;9.43;7.00;;;;;;;;;;4991124;28;20467;-44
2023/02/20 00:37:10;;;;;;;12.70;7.37;;;;;;;;;;4991864;28;20415;-44
2023/02/20 00:39:36;;;;;;;13.20;7.73;;;;;;;;;;4991350;28;20431;-44
2023/02/20 00:42:02;;;;;;;10.93;6.40;;;;;;;;;;4991906;28;20412;-43
2023/02/20 00:44:28;;;;;;;10.33;6.60;;;;;;;;;;4991213;28;20244;-43
2023/02/20 00:46:54;;;;;;;13.80;7.43;;;;;;;;;;4992407;28;20408;-44
2023/02/20 00:49:20;;;;;;;11.57;6.80;;;;;;;;;;4996298;28;20600;-44
2023/02/20 00:51:46;;;;;;;12.13;8.57;;;;;;;;;;4995480;28;20243;-43
2023/02/20 00:54:12;;;;;;;22.58;8.98;;;;;;;;;;4994585;28;20467;-43
2023/02/20 00:56:38;;;;;;;15.07;9.18;;;;;;;;;;4997300;28;20173;-44
2023/02/20 00:59:04;;;;;;;17.63;8.87;;;;;;;;;;4993667;28;20664;-44
2023/02/20 01:01:30;;;;;;;18.90;9.00;;;;;;;;;;4994429;28;20823;-44
2023/02/20 01:03:56;;;;;;;14.03;8.37;;;;;;;;;;4995032;28;20408;-44
2023/02/20 01:06:22;;;;;;;15.93;8.90;;;;;;;;;;4999498;28;20434;-44
2023/02/20 01:08:48;;;;;;;15.45;8.98;;;;;;;;;;4994426;28;20784;-43
2023/02/20 01:11:14;;;;;;;18.47;9.17;;;;;;;;;;4994901;28;20197;-43
2023/02/20 01:13:40;;;;;;;20.70;9.50;;;;;;;;;;4995201;28;20940;-43
2023/02/20 01:16:06;;;;;;;22.67;11.53;;;;;;;;;;4994449;28;20431;-43
2023/02/20 01:18:32;;;;;;;18.30;11.25;;;;;;;;;;4995066;28;20424;-43
2023/02/20 01:20:58;;;;;;;26.90;11.37;;;;;;;;;;4994857;28;20224;-44
2023/02/20 01:23:24;;;;;;;19.53;10.47;;;;;;;;;;4994808;28;20404;-44
2023/02/20 01:25:50;;;;;;;19.13;10.70;;;;;;;;;;4994031;28;20420;-44
2023/02/20 01:28:16;;;;;;;23.77;10.67;;;;;;;;;;4994877;28;20508;-43
2023/02/20 01:30:42;;;;;;;22.33;10.23;;;;;;;;;;4994859;28;20443;-44
2023/02/20 01:33:08;;;;;;;20.90;12.50;;;;;;;;;;4994747;28;20197;-44
2023/02/20 01:35:34;;;;;;;22.20;11.17;;;;;;;;;;4993924;28;20467;-43
2023/02/20 01:38:05;;;;;;;23.60;11.35;;;;;;;;;;4994402;28;20416;-44
2023/02/20 01:40:31;;;;;;;20.10;11.43;;;;;;;;;;4994603;28;20220;-44
2023/02/20 01:42:57;;;;;;;20.90;10.20;;;;;;;;;;4994739;28;20177;-44
2023/02/20 01:45:23;;;;;;;25.10;10.17;;;;;;;;;;4993752;28;20687;-44
2023/02/20 01:47:50;;;;;;;23.67;12.53;;;;;;;;;;4994493;28;20981;-44
2023/02/20 01:50:17;;;;;;;14.82;9.60;;;;;;;;;;4994525;28;20482;-44
2023/02/20 01:52:44;;;;;;;14.30;10.13;;;;;;;;;;4994384;28;20771;-44
2023/02/20 01:55:12;;;;;;;18.27;10.23;;;;;;;;;;4996092;28;20243;-43
2023/02/20 01:57:39;;;;;;;15.25;10.00;;;;;;;;;;4994382;28;20707;-44
2023/02/20 02:00:13;;;;;;;17.17;9.65;;;;;;;;;;4994098;28;20291;-43
2023/02/20 02:02:41;;;;;;;14.45;8.95;;;;;;;;;;4993303;28;20177;-43
2023/02/20 02:05:09;;;;;;;16.60;9.02;;;;;;;;;;4992846;28;20230;-44
2023/02/20 02:07:35;;;;;;;23.20;9.68;;;;;;;;;;4993673;28;20180;-44
2023/02/20 02:10:09;;;;;;;22.40;10.38;;;;;;;;;;4993820;28;20215;-44
2023/02/20 02:12:35;;;;;;;15.45;9.38;;;;;;;;;;4994430;28;20173;-44
2023/02/20 02:15:01;;;;;;;15.02;9.27;;;;;;;;;;4993281;28;20197;-44
2023/02/20 02:17:38;;;;;;;21.33;10.53;;;;;;;;;;4994201;28;20708;-44
2023/02/20 02:20:13;;;;;;;14.73;8.80;;;;;;;;;;4993899;28;20490;-44
2023/02/20 02:23:12;;;;;;;25.67;10.25;;;;;;;;;;4993891;28;20284;-43
2023/02/20 02:25:47;;;;;;;15.00;9.07;;;;;;;;;;4988684;28;20177;-44
2023/02/20 02:28:31;;;;;;;17.58;10.00;;;;;;;;;;4993555;28;20181;-43
2023/02/20 02:30:57;;;;;;;18.45;10.15;;;;;;;;;;4993786;28;20262;-44
2023/02/20 02:33:29;;;;;;;18.90;10.40;;;;;;;;;;4993654;28;20272;-44
2023/02/20 02:36:17;;;;;;;14.80;9.87;;;;;;;;;;4992357;28;20470;-43
2023/02/20 02:38:46;;;;;;;18.83;10.82;;;;;;;;;;4993486;28;20455;-44
2023/02/20 02:41:15;;;;;;;16.42;9.82;;;;;;;;;;4993404;28;20566;-44
2023/02/20 02:43:41;;;;;;;17.30;10.18;;;;;;;;;;4993576;28;20216;-44
2023/02/20 02:46:28;;;;;;;21.73;10.20;;;;;;;;;;4992535;28;20219;-44
2023/02/20 02:49:07;;;;;;;15.98;9.82;;;;;;;;;;4992915;28;20491;-44
2023/02/20 02:51:36;;;;;;;21.88;10.10;;;;;;;;;;4993617;28;20177;-44
2023/02/20 02:54:08;;;;;;;19.58;10.02;;;;;;;;;;4991870;28;20197;-43
2023/02/20 02:56:35;;;;;;;24.97;10.20;;;;;;;;;;4995119;28;20216;-44
2023/02/20 02:59:02;;;;;;;19.48;10.43;;;;;;;;;;4992996;28;20443;-44
2023/02/20 03:01:29;;;;;;;13.68;9.73;;;;;;;;;;4992798;28;20177;-43
2023/02/20 03:03:56;;;;;;;22.73;10.83;;;;;;;;;;4993069;28;20173;-43
2023/02/20 03:06:29;;;;;;;19.05;9.98;;;;;;;;;;4992250;28;20408;-43
2023/02/20 03:09:05;;;;;;;19.92;10.00;;;;;;;;;;4992927;28;20259;-44
2023/02/20 03:11:32;;;;;;;24.60;10.40;;;;;;;;;;4992568;28;20173;-43
2023/02/20 03:16:54;;;;;;;19.33;8.90;;;;;;;;;;4989329;28;20663;-44
2023/02/20 03:19:33;;;;;;;19.58;10.30;;;;;;;;;;4992765;28;20185;-44
2023/02/20 03:22:00;;;;;;;19.90;9.98;;;;;;;;;;4992670;28;20189;-44
2023/02/20 03:24:28;;;;;;;15.48;9.70;;;;;;;;;;4992737;28;20208;-43
2023/02/20 03:26:56;;;;;;;18.77;10.23;;;;;;;;;;4992187;28;20184;-43
2023/02/20 03:29:29;;;;;;;19.40;10.63;;;;;;;;;;4992527;28;20201;-43
2023/02/20 03:45:47;;;;;;;23.30;10.37;;;;;;;;;;4991823;28;20414;-44
2023/02/20 03:48:20;;;;;;;18.10;10.95;;;;;;;;;;4991438;28;20418;-44
2023/02/20 03:50:46;;;;;;;19.75;10.55;;;;;;;;;;4991572;28;20704;-44
2023/02/20 03:53:12;;;;;;;16.38;9.88;;;;;;;;;;4991678;28;20180;-44
2023/02/20 03:58:44;;;;;;;17.85;10.15;;;;;;;;;;4991722;28;20175;-44
2023/02/20 04:01:11;;;;;;;18.85;10.95;;;;;;;;;;4991313;28;20263;-43
2023/02/20 04:03:40;;;;;;;14.57;9.60;;;;;;;;;;4991514;28;20170;-44
2023/02/20 04:06:07;;;;;;;14.30;9.57;;;;;;;;;;4990774;28;20177;-43
2023/02/20 04:08:37;;;;;;;16.88;10.38;;;;;;;;;;4991173;28;20464;-44
2023/02/20 04:11:09;;;;;;;17.50;9.40;;;;;;;;;;4991101;28;20287;-44
2023/02/20 04:13:36;;;;;;;20.90;10.55;;;;;;;;;;4991464;28;20177;-43
2023/02/20 04:16:03;;;;;;;22.55;10.73;;;;;;;;;;4990590;28;20213;-44
2023/02/20 04:18:29;;;;;;;17.00;10.60;;;;;;;;;;4991008;28;20227;-43
2023/02/20 04:20:56;;;;;;;19.50;9.32;;;;;;;;;;4991258;28;20448;-43
2023/02/20 04:23:24;;;;;;;19.65;10.30;;;;;;;;;;4993774;28;20177;-44
2023/02/20 04:25:56;;;;;;;23.58;8.77;;;;;;;;;;4993851;28;20178;-43
2023/02/20 04:28:22;;;;;;;24.52;9.52;;;;;;;;;;4994381;28;20240;-44
2023/02/20 04:30:49;;;;;;;14.50;8.85;;;;;;;;;;4994203;28;20246;-44
2023/02/20 04:33:17;;;;;;;15.43;8.25;;;;;;;;;;4959069;28;1060765;-44
2023/02/20 04:35:43;;;;;;;14.55;8.68;;;;;;;;;;4995237;28;20208;-44
2023/02/20 04:38:10;;;;;;;20.20;10.30;;;;;;;;;;4995327;28;20630;-44
2023/02/20 04:40:36;;;;;;;18.73;10.07;;;;;;;;;;4995685;28;20420;-44
2023/02/20 04:43:02;;;;;;;13.57;7.57;;;;;;;;;;4995816;28;20185;-43
2023/02/20 04:45:28;;;;;;;23.53;10.80;;;;;;;;;;4995098;28;20181;-44
2023/02/20 04:47:54;;;;;;;17.60;8.20;;;;;;;;;;4995331;28;20471;-44
2023/02/20 04:50:28;;;;;;;15.10;8.23;;;;;;;;;;4995516;28;20439;-44
2023/02/20 04:52:54;;;;;;;13.35;7.88;;;;;;;;;;4995370;28;20186;-43
2023/02/20 04:55:20;;;;;;;18.77;8.70;;;;;;;;;;4997464;28;20236;-44
2023/02/20 04:57:47;;;;;;;13.70;8.48;;;;;;;;;;4995589;28;20675;-44
2023/02/20 05:00:14;;;;;;;16.70;8.80;;;;;;;;;;4995053;28;20665;-43
2023/02/20 05:02:40;;;;;;;22.70;8.60;;;;;;;;;;4995362;28;20177;-44
2023/02/20 05:05:14;;;;;;;17.33;8.63;;;;;;;;;;4994636;28;20684;-43
2023/02/20 05:07:40;;;;;;;17.30;7.90;;;;;;;;;;4995312;28;20177;-44
2023/02/20 05:10:06;;;;;;;16.20;7.10;;;;;;;;;;4995003;28;20304;-44
2023/02/20 05:12:32;;;;;;;15.38;8.27;;;;;;;;;;4995133;28;20448;-44
2023/02/20 05:14:58;;;;;;;20.70;8.10;;;;;;;;;;4994441;28;20806;-44
2023/02/20 05:17:24;;;;;;;18.20;7.63;;;;;;;;;;4995188;28;20967;-44
2023/02/20 05:19:50;;;;;;;13.63;7.40;;;;;;;;;;4994508;28;20795;-44
2023/02/20 05:22:19;;;;;;;16.97;8.33;;;;;;;;;;4995202;28;20451;-44
2023/02/20 05:24:46;;;;;;;21.73;9.60;;;;;;;;;;4994522;28;20416;-44
2023/02/20 05:27:13;;;;;;;13.40;7.70;;;;;;;;;;4993272;28;20537;-44
2023/02/20 05:29:43;;;;;;;13.48;7.50;;;;;;;;;;5001212;28;20688;-44
2023/02/20 05:32:09;;;;;;;18.60;7.03;;;;;;;;;;4994829;28;20203;-44
2023/02/20 05:34:35;;;;;;;15.53;8.03;;;;;;;;;;4994059;28;20192;-44
2023/02/20 05:37:01;;;;;;;17.50;7.57;;;;;;;;;;4994225;28;20978;-44
2023/02/20 05:39:27;;;;;;;11.87;6.10;;;;;;;;;;4994492;28;20460;-43
2023/02/20 05:41:53;;;;;;;19.20;7.30;;;;;;;;;;4993412;28;20416;-44
2023/02/20 05:44:19;;;;;;;11.50;7.73;;;;;;;;;;4994669;28;20196;-44
2023/02/20 05:46:45;;;;;;;14.70;7.20;;;;;;;;;;5000575;28;20448;-43
2023/02/20 05:49:11;;;;;;;11.57;7.30;;;;;;;;;;4994270;28;20821;-44
2023/02/20 05:51:37;;;;;;;14.15;6.70;;;;;;;;;;4994520;28;20492;-44
2023/02/20 05:54:05;;;;;;;16.37;7.87;;;;;;;;;;4994333;28;20268;-44
2023/02/20 05:56:31;;;;;;;14.68;7.93;;;;;;;;;;4993764;28;20445;-44
2023/02/20 05:58:57;;;;;;;13.43;7.00;;;;;;;;;;4994150;28;20192;-44
2023/02/20 06:01:30;;;;;;;13.75;6.78;;;;;;;;;;4994326;28;20203;-44
2023/02/20 06:03:57;;;;;;;12.90;6.68;;;;;;;;;;4994220;28;20529;-43
2023/02/20 06:06:23;;;;;;;14.00;6.57;;;;;;;;;;4993696;28;20665;-44
2023/02/20 06:08:49;;;;;;;13.77;6.22;;;;;;;;;;4994032;28;20176;-44
2023/02/20 06:11:16;;;;;;;18.90;6.30;;;;;;;;;;4994101;28;20560;-44
2023/02/20 06:13:43;;;;;;;11.75;6.40;;;;;;;;;;4994119;28;20888;-43
2023/02/20 06:16:09;;;;;;;9.95;6.47;;;;;;;;;;4993191;28;20673;-44
2023/02/20 06:18:38;;;;;;;15.23;7.53;;;;;;;;;;4994009;28;20180;-44
2023/02/20 06:21:06;;;;;;;11.13;6.40;;;;;;;;;;4994030;28;20256;-44
2023/02/20 06:23:32;;;;;;;12.53;7.07;;;;;;;;;;4993890;28;20253;-44
2023/02/20 06:25:58;;;;;;;18.23;10.00;;;;;;;;;;4993162;28;20436;-44
2023/02/20 06:28:24;;;;;;;14.45;8.55;;;;;;;;;;4993721;28;20412;-44
2023/02/20 06:30:50;;;;;;;14.30;7.32;;;;;;;;;;4993633;28;20197;-44
2023/02/20 06:33:16;;;;;;;17.48;9.27;;;;;;;;;;4993634;28;20192;-44
2023/02/20 06:35:42;;;;;;;15.93;7.73;;;;;;;;;;4992984;28;20221;-44
2023/02/20 06:38:09;;;;;;;14.20;8.93;;;;;;;;;;4993525;28;20466;-44
2023/02/20 06:40:34;;;;;;;15.80;8.98;;;;;;;;;;4993440;28;20435;-44
2023/02/20 06:43:00;;;;;;;12.90;8.37;;;;;;;;;;4993494;28;20177;-44
2023/02/20 06:45:26;;;;;;;18.70;10.20;;;;;;;;;;4992025;28;20408;-43
2023/02/20 06:47:52;;;;;;;17.40;10.97;;;;;;;;;;4993386;28;20411;-43
2023/02/20 06:50:18;;;;;;;16.40;10.57;;;;;;;;;;4993297;28;20523;-43
2023/02/20 06:52:44;;;;;;;14.43;10.20;;;;;;;;;;4993351;28;20416;-43
2023/02/20 06:55:10;;;;;;;20.58;10.18;;;;;;;;;;4995033;28;20200;-44
2023/02/20 06:57:36;;;;;;;13.57;9.40;;;;;;;;;;4993327;28;20182;-44
2023/02/20 07:00:03;;;;;;;17.70;10.37;;;;;;;;;;4992845;28;20436;-43
2023/02/20 07:02:29;;;;;;;13.20;9.37;;;;;;;;;;4993192;28;20405;-44
2023/02/20 07:04:55;;;;;;;21.43;10.80;;;;;;;;;;4992569;28;20419;-44
2023/02/20 07:07:21;;;;;;;13.27;9.47;;;;;;;;;;4992925;28;20503;-44
2023/02/20 07:09:47;;;;;;;14.80;11.23;;;;;;;;;;4992864;28;20443;-43
2023/02/20 07:12:13;;;;;;;16.57;10.00;;;;;;;;;;4992941;28;20787;-44
2023/02/20 07:14:39;;;;;;;21.50;11.33;;;;;;;;;;4992787;28;20840;-44
2023/02/20 07:17:05;;;;;;;17.83;11.88;;;;;;;;;;4992261;28;20778;-44
2023/02/20 07:19:31;;;;;;;18.80;10.80;;;;;;;;;;4992697;28;20189;-44
2023/02/20 07:21:56;;;;;;;15.30;11.10;;;;;;;;;;4992856;28;20870;-43
2023/02/20 07:24:22;;;;;;;19.90;10.93;;;;;;;;;;4992747;28;20751;-44
2023/02/20 07:26:48;;;;;;;21.10;10.67;;;;;;;;;;4991962;28;20512;-44
2023/02/20 07:29:14;;;;;;;23.33;13.10;;;;;;;;;;4992512;28;20415;-44
2023/02/20 07:31:40;;;;;;;18.07;12.20;;;;;;;;;;4992643;28;20718;-44
2023/02/20 07:34:07;;;;;;;19.63;11.63;;;;;;;;;;4992594;28;20490;-44
2023/02/20 07:36:34;;;;;;;29.63;13.00;;;;;;;;;;4991989;28;20542;-43
2023/02/20 07:39:01;;;;;;;29.23;12.90;;;;;;;;;;4990889;28;20684;-43
2023/02/20 07:41:28;;;;;;;20.85;12.10;;;;;;;;;;4992430;28;20405;-44
2023/02/20 07:43:55;;;;;;;18.30;10.37;;;;;;;;;;4990304;28;20179;-44
2023/02/20 07:46:21;;;;;;;16.63;11.43;;;;;;;;;;4998469;28;20412;-44
2023/02/20 07:48:47;;;;;;;22.17;12.35;;;;;;;;;;4992149;28;20420;-44
2023/02/20 07:51:13;;;;;;;19.33;10.45;;;;;;;;;;4992356;28;20264;-44
2023/02/20 07:53:40;;;;;;;21.63;11.98;;;;;;;;;;4992445;28;20546;-43
2023/02/20 07:56:06;;;;;;;19.50;11.60;;;;;;;;;;4991335;28;20204;-44
2023/02/20 07:58:32;;;;;;;16.50;10.30;;;;;;;;;;4992276;28;20220;-44
2023/02/20 08:00:58;;;;;;;17.57;11.33;;;;;;;;;;4992102;28;20436;-44
2023/02/20 08:03:24;;;;;;;18.77;10.93;;;;;;;;;;4992663;28;20413;-44
2023/02/20 08:05:50;;;;;;;22.90;11.33;;;;;;;;;;4991450;28;20451;-44
2023/02/20 08:08:17;;;;;;;24.83;12.70;;;;;;;;;;4991345;28;20408;-44
2023/02/20 08:10:43;;;;;;;20.98;11.30;;;;;;;;;;4992103;28;20429;-44
2023/02/20 08:13:09;;;;;;;19.13;11.27;;;;;;;;;;4992086;28;20645;-44
2023/02/20 08:15:34;;;;;;;19.83;11.77;;;;;;;;;;4991303;28;20964;-44
2023/02/20 08:18:00;;;;;;;21.77;11.87;;;;;;;;;;4991834;28;20450;-44
2023/02/20 08:20:26;;;;;;;14.47;8.73;;;;;;;;;;4991956;28;20446;-44
2023/02/20 08:22:52;;;;;;;17.57;11.97;;;;;;;;;;4991962;28;20918;-44
2023/02/20 08:25:18;;;;;;;22.47;11.83;;;;;;;;;;4990517;28;20416;-44
2023/02/20 08:27:45;;;;;;;19.07;12.23;;;;;;;;;;4992078;28;20486;-44
2023/02/20 08:30:13;;;;;;;21.63;11.07;;;;;;;;;;4991688;28;20464;-44
2023/02/20 08:32:39;;;;;;;21.10;11.67;;;;;;;;;;4991370;28;20437;-44
2023/02/20 08:35:06;;;;;;;19.70;11.27;;;;;;;;;;4989922;28;20467;-44
2023/02/20 08:37:32;;;;;;;16.65;10.60;;;;;;;;;;4992017;28;20471;-44
2023/02/20 08:39:57;;;;;;;18.33;12.40;;;;;;;;;;4995146;28;20194;-43
2023/02/20 08:42:23;;;;;;;15.30;10.57;;;;;;;;;;4991438;28;20446;-44
2023/02/20 08:44:49;;;;;;;19.83;11.23;;;;;;;;;;4991610;28;20460;-44
2023/02/20 08:47:20;;;;;;;22.80;12.63;;;;;;;;;;4991087;28;20401;-43
2023/02/20 08:49:47;;;;;;;33.50;12.50;;;;;;;;;;4988126;28;20433;-44
2023/02/20 08:52:13;;;;;;;22.90;11.10;;;;;;;;;;4989335;28;20944;-44
2023/02/20 08:54:39;;;;;;;20.83;11.63;;;;;;;;;;4991750;28;20475;-44
2023/02/20 08:57:06;;;;;;;20.83;11.07;;;;;;;;;;4991170;28;20410;-44
2023/02/20 08:59:32;;;;;;;20.20;11.63;;;;;;;;;;4992898;28;20859;-44
2023/02/20 09:01:58;;;;;;;26.30;11.30;;;;;;;;;;4994941;28;20889;-44
2023/02/20 09:04:24;;;;;;;18.53;11.93;;;;;;;;;;4991744;28;20485;-44
2023/02/20 09:06:50;;;;;;;20.10;12.17;;;;;;;;;;4993766;28;20404;-44
2023/02/20 09:09:16;;;;;;;18.10;10.73;;;;;;;;;;4994022;28;20437;-44
2023/02/20 09:11:42;;;;;;;19.83;10.30;;;;;;;;;;5000002;28;20809;-44
2023/02/20 09:14:08;;;;;;;16.90;10.70;;;;;;;;;;4995799;28;20504;-44
2023/02/20 09:16:34;;;;;;;19.33;11.63;;;;;;;;;;4994747;28;20475;-44
2023/02/20 09:19:00;;;;;;;14.23;8.63;;;;;;;;;;4994746;28;20911;-44
2023/02/20 09:21:28;;;;;;;15.80;11.17;;;;;;;;;;4994962;28;20499;-44
2023/02/20 09:23:55;;;;;;;18.60;11.80;;;;;;;;;;4995043;28;20410;-44
2023/02/20 09:26:21;;;;;;;24.80;11.70;;;;;;;;;;4994530;28;20768;-44
2023/02/20 09:28:47;;;;;;;20.33;11.57;;;;;;;;;;4995156;28;20409;-44
2023/02/20 09:31:13;;;;;;;16.70;9.80;;;;;;;;;;4994362;28;20431;-44
2023/02/20 09:33:39;;;;;;;19.47;10.27;;;;;;;;;;4994881;28;20463;-44
2023/02/20 09:36:05;;;;;;;18.60;11.53;;;;;;;;;;4993969;28;20472;-44
2023/02/20 09:38:31;;;;;;;19.00;11.93;;;;;;;;;;4994417;28;20409;-43
2023/02/20 09:40:58;;;;;;;21.00;11.90;;;;;;;;;;4994441;28;20795;-44
2023/02/20 09:43:40;;;;;;;19.07;11.57;;;;;;;;;;4994480;28;20437;-43
2023/02/20 09:46:06;;;;;;;20.90;11.23;;;;;;;;;;4992778;28;20416;-45
2023/02/20 09:48:41;;;;;;;24.70;11.47;;;;;;;;;;4994655;28;20413;-46
2023/02/20 09:51:17;;;;;;;20.13;11.40;;;;;;;;;;4994539;28;20474;-46
2023/02/20 09:53:56;;;;;;;20.40;10.10;;;;;;;;;;4994743;28;20408;-46
2023/02/20 09:56:25;;;;;;;20.33;10.77;;;;;;;;;;4989837;28;20420;-45
2023/02/20 09:58:59;;;;;;;27.60;12.20;;;;;;;;;;4994693;28;20428;-46
2023/02/20 10:01:26;;;;;;;19.63;11.37;;;;;;;;;;4994615;28;20402;-47
2023/02/20 10:03:55;;;;;;;19.57;10.30;;;;;;;;;;4994512;28;20429;-47
2023/02/20 10:06:22;;;;;;;23.70;10.87;;;;;;;;;;4994224;28;20446;-46
2023/02/20 10:08:48;;;;;;;19.87;10.53;;;;;;;;;;4994204;28;20394;-46
2023/02/20 10:11:33;;;;;;;24.33;11.90;;;;;;;;;;4986366;28;20924;-45
2023/02/20 10:14:02;;;;;;;17.27;11.00;;;;;;;;;;4991926;28;21100;-46
2023/02/20 10:16:46;;;;;;;22.43;11.40;;;;;;;;;;4992452;28;20951;-46
2023/02/20 10:19:25;;;;;;;20.17;11.00;;;;;;;;;;4993582;28;20416;-46
2023/02/20 10:21:53;;;;;;;29.70;11.10;;;;;;;;;;4993808;28;20924;-47
2023/02/20 10:24:25;;;;;;;17.17;9.53;;;;;;;;;;4993932;28;20787;-45
2023/02/20 10:26:54;;;;;;;24.90;11.53;;;;;;;;;;4993359;28;20831;-47
2023/02/20 10:29:23;;;;;;;14.70;9.83;;;;;;;;;;4993706;28;20512;-45
2023/02/20 10:31:53;;;;;;;18.53;10.50;;;;;;;;;;4992664;28;20433;-47
2023/02/20 10:34:37;;;;;;;18.80;10.60;;;;;;;;;;4993854;28;20473;-46
2023/02/20 10:37:08;;;;;;;20.20;9.67;;;;;;;;;;4993036;28;20505;-45
2023/02/20 10:39:37;;;;;;;24.13;12.57;;;;;;;;;;4993679;28;20472;-47
2023/02/20 10:42:03;;;;;;;16.53;10.00;;;;;;;;;;4999762;28;20426;-46
2023/02/20 10:44:44;;;;;;;15.77;10.70;;;;;;;;;;4993336;28;20426;-45
2023/02/20 10:47:16;;;;;;;18.23;10.70;;;;;;;;;;4992898;28;20449;-47
2023/02/20 10:49:42;;;;;;;17.33;10.93;;;;;;;;;;4977983;28;20452;-45
2023/02/20 10:52:12;;;;;;;14.83;10.03;;;;;;;;;;4977778;28;20414;-47
2023/02/20 10:54:42;;;;;;;17.73;11.43;;;;;;;;;;4978675;28;20466;-44
2023/02/20 10:57:15;;;;;;;17.40;10.50;;;;;;;;;;5005356;28;20423;-44
2023/02/20 10:59:49;;;;;;;17.93;11.13;;;;;;;;;;4993401;28;20461;-43
2023/02/20 11:02:20;;;;;;;19.27;9.90;;;;;;;;;;4993683;28;20797;-43
2023/02/20 11:04:59;;;;;;;24.57;10.47;;;;;;;;;;4993023;28;20914;-43
2023/02/20 11:07:25;;;;;;;18.00;10.50;;;;;;;;;;4992414;28;20407;-44
2023/02/20 11:09:51;;;;;;;18.23;10.90;;;;;;;;;;4992970;28;20422;-44
2023/02/20 11:12:27;;;;;;;18.87;10.80;;;;;;;;;;4993043;28;20417;-44
2023/02/20 11:14:55;;;;;;;25.03;11.10;;;;;;;;;;4992879;28;20978;-43
2023/02/20 11:17:25;;;;;;;18.70;9.93;;;;;;;;;;4992406;28;20919;-43
2023/02/20 11:19:53;;;;;;;19.90;10.43;;;;;;;;;;4992697;28;20509;-44
2023/02/20 11:22:38;;;;;;;12.57;9.43;;;;;;;;;;4992957;28;20429;-43
2023/02/20 11:25:32;;;;;;;23.83;11.10;;;;;;;;;;4992716;28;20426;-44
2023/02/20 11:28:17;;;;;;;20.37;11.60;;;;;;;;;;4991950;28;20469;-44
2023/02/20 11:30:43;;;;;;;24.70;12.20;;;;;;;;;;4992102;28;20445;-43
2023/02/20 11:33:17;;;;;;;16.57;10.90;;;;;;;;;;4992451;28;20430;-44
2023/02/20 11:35:55;;;;;;;21.03;10.47;;;;;;;;;;4992002;28;20481;-43
2023/02/20 11:38:21;;;;;;;19.33;10.80;;;;;;;;;;4992590;28;20403;-44
2023/02/20 11:41:07;;;;;;;19.80;11.20;;;;;;;;;;4992553;28;20422;-43
2023/02/20 11:43:38;;;;;;;24.47;11.50;;;;;;;;;;4991161;28;20829;-44
2023/02/20 11:46:08;;;;;;;15.00;10.17;;;;;;;;;;4991884;28;20839;-44
2023/02/20 11:48:34;;;;;;;17.07;10.47;;;;;;;;;;4992312;28;20468;-44
2023/02/20 11:51:01;;;;;;;17.90;11.07;;;;;;;;;;4992235;28;20523;-43
2023/02/20 11:53:30;;;;;;;19.17;9.77;;;;;;;;;;4992393;28;20976;-44
2023/02/20 11:56:09;;;;;;;15.87;9.67;;;;;;;;;;4994359;28;21069;-44
2023/02/20 11:58:35;;;;;;;13.40;8.97;;;;;;;;;;4992385;28;20886;-43
2023/02/20 12:01:01;;;;;;;21.50;11.60;;;;;;;;;;4992191;28;20450;-44
2023/02/20 12:03:33;;;;;;;15.50;9.23;;;;;;;;;;4992253;28;20398;-43
2023/02/20 12:05:59;;;;;;;14.70;9.27;;;;;;;;;;4991657;28;20417;-44
2023/02/20 12:08:33;;;;;;;13.73;8.20;;;;;;;;;;4991912;28;20412;-44
2023/02/20 12:11:03;;;;;;;18.20;9.73;;;;;;;;;;4992070;28;20958;-44
2023/02/20 12:13:30;;;;;;;12.13;7.80;;;;;;;;;;4992048;28;20911;-44
2023/02/20 12:16:02;;;;;;;16.43;9.43;;;;;;;;;;4991445;28;20543;-44
2023/02/20 12:18:28;;;;;;;15.43;9.43;;;;;;;;;;4992015;28;20573;-44
2023/02/20 12:21:13;;;;;;;15.67;9.73;;;;;;;;;;4990507;28;20527;-43
2023/02/20 12:24:00;;;;;;;16.07;9.00;;;;;;;;;;4991880;28;20414;-43
2023/02/20 12:26:26;;;;;;;21.27;9.90;;;;;;;;;;4991451;28;20475;-43
2023/02/20 12:29:04;;;;;;;17.30;9.40;;;;;;;;;;4991791;28;20943;-43
2023/02/20 12:31:38;;;;;;;17.80;11.13;;;;;;;;;;4990512;28;20426;-43
2023/02/20 12:34:14;;;;;;;18.67;10.57;;;;;;;;;;4991937;28;20409;-44
2023/02/20 12:36:47;;;;;;;19.27;11.03;;;;;;;;;;4991388;28;20402;-44
2023/02/20 12:39:24;;;;;;;19.30;10.53;;;;;;;;;;4993574;28;20411;-44
2023/02/20 12:42:09;;;;;;;17.93;10.87;;;;;;;;;;4993912;28;20418;-45
2023/02/20 12:44:47;;;;;;;19.60;11.00;;;;;;;;;;4998392;28;20421;-43
2023/02/20 12:47:29;;;;;;;18.57;11.03;;;;;;;;;;4996238;28;20432;-45
2023/02/20 12:50:16;;;;;;;17.53;10.37;;;;;;;;;;4998586;28;20519;-43
2023/02/20 12:53:01;;;;;;;17.57;11.03;;;;;;;;;;4998738;28;20458;-43
2023/02/20 12:55:33;;;;;;;19.70;9.77;;;;;;;;;;5003959;28;20462;-43
2023/02/20 12:58:17;;;;;;;20.97;9.53;;;;;;;;;;5004773;28;20485;-43
2023/02/20 13:01:04;;;;;;;18.00;9.37;;;;;;;;;;4995902;28;20443;-46
2023/02/20 13:03:39;;;;;;;19.87;10.60;;;;;;;;;;4995965;28;20432;-44
2023/02/20 13:06:06;;;;;;;18.43;10.43;;;;;;;;;;4994733;28;20472;-44
2023/02/20 13:08:39;;;;;;;19.53;11.50;;;;;;;;;;4995292;28;20421;-43
2023/02/20 13:11:10;;;;;;;20.50;11.20;;;;;;;;;;4995145;28;20505;-44
2023/02/20 13:13:56;;;;;;;18.60;10.27;;;;;;;;;;4995206;28;20442;-43
2023/02/20 13:16:24;;;;;;;28.47;12.67;;;;;;;;;;4994625;28;20462;-44
2023/02/20 13:19:04;;;;;;;20.10;10.27;;;;;;;;;;4995094;28;20429;-42
2023/02/20 13:21:30;;;;;;;27.83;11.90;;;;;;;;;;4995152;28;20895;-43
2023/02/20 13:24:26;;;;;;;18.83;11.23;;;;;;;;;;4994974;28;20415;-41
2023/02/20 13:26:56;;;;;;;25.23;12.27;;;;;;;;;;4994416;28;20418;-45
2023/02/20 13:29:26;;;;;;;20.23;11.47;;;;;;;;;;4994731;28;20443;-45
2023/02/20 13:31:56;;;;;;;22.50;11.50;;;;;;;;;;4994885;28;20800;-45
2023/02/20 13:34:30;;;;;;;17.40;11.03;;;;;;;;;;4994806;28;20814;-41
2023/02/20 13:36:56;;;;;;;17.50;11.17;;;;;;;;;;4994118;28;20983;-41
2023/02/20 13:39:22;;;;;;;17.00;11.00;;;;;;;;;;4994393;28;20966;-42
2023/02/20 13:41:54;;;;;;;20.07;12.20;;;;;;;;;;4994558;28;20466;-45
2023/02/20 13:44:35;;;;;;;16.43;10.30;;;;;;;;;;4994425;28;20490;-42
2023/02/20 13:47:17;;;;;;;17.90;11.80;;;;;;;;;;4994008;28;20406;-42
2023/02/20 13:52:32;;;;;;;22.50;10.60;;;;;;;;;;4995011;28;20417;-43
2023/02/20 13:55:00;;;;;;;21.27;11.80;;;;;;;;;;4997947;28;20457;-46
2023/02/20 13:57:32;;;;;;;19.90;11.00;;;;;;;;;;4997170;28;20452;-42
2023/02/20 14:00:00;;;;;;;24.90;11.20;;;;;;;;;;4994218;28;20435;-42
2023/02/20 14:02:29;;;;;;;17.83;12.60;;;;;;;;;;4994135;28;20437;-42
2023/02/20 14:04:59;;;;;;;16.10;10.00;;;;;;;;;;4994164;28;20426;-42
2023/02/20 14:07:31;;;;;;;22.53;10.97;;;;;;;;;;4993634;28;20898;-41
2023/02/20 14:10:02;;;;;;;23.93;11.70;;;;;;;;;;4993448;28;20555;-44
2023/02/20 14:12:28;;;;;;;21.23;11.80;;;;;;;;;;4994109;28;20779;-44
2023/02/20 14:14:55;;;;;;;17.47;10.03;;;;;;;;;;4993974;28;20821;-41
2023/02/20 14:17:22;;;;;;;22.83;10.83;;;;;;;;;;4992154;28;20462;-42
2023/02/20 14:19:53;;;;;;;17.53;10.37;;;;;;;;;;4993725;28;20438;-44
2023/02/20 14:22:24;;;;;;;20.17;11.53;;;;;;;;;;4994099;28;20423;-42
2023/02/20 14:25:08;;;;;;;21.07;11.90;;;;;;;;;;4993914;28;20528;-42
2023/02/20 14:27:34;;;;;;;16.43;11.17;;;;;;;;;;4993220;28;20965;-42
2023/02/20 14:30:07;;;;;;;21.73;11.63;;;;;;;;;;4993503;28;20962;-42
2023/02/20 14:32:34;;;;;;;24.13;11.80;;;;;;;;;;4993739;28;20439;-44
2023/02/20 14:35:25;;;;;;;23.67;10.80;;;;;;;;;;4993631;28;20467;-43
2023/02/20 14:38:03;;;;;;;17.70;11.33;;;;;;;;;;4992944;28;20411;-45
2023/02/20 14:40:41;;;;;;;24.17;12.37;;;;;;;;;;4993698;28;20440;-41
2023/02/20 14:43:19;;;;;;;16.23;9.70;;;;;;;;;;4993533;28;20485;-42
2023/02/20 14:45:45;;;;;;;24.23;12.03;;;;;;;;;;4993109;28;20406;-43
2023/02/20 14:48:23;;;;;;;28.23;11.57;;;;;;;;;;4993905;28;20423;-46
2023/02/20 14:51:01;;;;;;;25.70;11.20;;;;;;;;;;4993279;28;20488;-45
2023/02/20 14:53:27;;;;;;;19.07;11.03;;;;;;;;;;4993737;28;20470;-47
2023/02/20 14:55:53;;;;;;;21.20;12.50;;;;;;;;;;5003976;28;20926;-45
2023/02/20 14:58:24;;;;;;;18.80;10.00;;;;;;;;;;5002467;28;20816;-44